Time;durP1;ratioP1;P1;durP2;ratioP2;P2;SDS_P1;SDS_P2;PMS_P1;PMS_P2;Temp;Humidity;BMP_temperature;BMP_pressure;BME280_temperature;BME280_humidity;BME280_pressure;Samples;Min_cycle;Max_cycle;Signal;HPM_P1;HPM_P2
2022/08/20 04:00:47;;;;;;;0.33;0.33;;;18.60;99.90;;;;;;5729107;23;20521;-69
2022/08/20 04:03:15;;;;;;;0.53;0.53;;;18.60;99.90;;;;;;4914164;29;20465;-71
2022/08/20 04:05:42;;;;;;;0.67;0.67;;;18.60;99.90;;;;;;4914837;29;20674;-71
2022/08/20 04:08:12;;;;;;;0.40;0.40;;;18.60;99.90;;;;;;4918884;29;20469;-71
2022/08/20 04:10:38;;;;;;;0.60;0.57;;;18.60;99.90;;;;;;4905472;29;20492;-70
2022/08/20 04:13:07;;;;;;;0.20;0.20;;;18.70;99.90;;;;;;4914761;29;20486;-71
2022/08/20 04:15:36;;;;;;;0.27;0.27;;;18.60;99.90;;;;;;4904363;29;20487;-71
2022/08/20 04:18:07;;;;;;;0.30;0.30;;;18.70;99.90;;;;;;4920146;29;20508;-71
2022/08/20 04:20:36;;;;;;;0.20;0.20;;;18.70;99.90;;;;;;4916804;29;20562;-71
2022/08/20 04:23:03;;;;;;;0.30;0.30;;;18.70;99.90;;;;;;4921590;29;20480;-71
2022/08/20 04:25:33;;;;;;;0.37;0.37;;;18.70;99.90;;;;;;4908369;29;20474;-72
2022/08/20 04:28:00;;;;;;;0.37;0.37;;;18.70;99.90;;;;;;4917106;29;20478;-72
2022/08/20 04:30:28;;;;;;;0.20;0.20;;;18.70;99.90;;;;;;4906162;29;20472;-72
2022/08/20 04:32:55;;;;;;;0.50;0.50;;;18.70;99.90;;;;;;4915361;29;20505;-71
2022/08/20 04:35:24;;;;;;;0.40;0.40;;;18.80;99.90;;;;;;4910716;29;20561;-72
2022/08/20 04:37:59;;;;;;;0.30;0.30;;;18.80;99.90;;;;;;4918108;29;20492;-72
2022/08/20 04:43:12;;;;;;;0.33;0.30;;;18.70;99.90;;;;;;4901587;29;20469;-71
2022/08/20 04:45:40;;;;;;;0.27;0.27;;;18.70;99.90;;;;;;4905931;29;21174;-71
2022/08/20 04:48:07;;;;;;;0.37;0.37;;;18.70;99.90;;;;;;4909356;29;20477;-71
2022/08/20 04:50:37;;;;;;;0.57;0.57;;;18.70;99.90;;;;;;4912563;29;20787;-71
2022/08/20 04:53:04;;;;;;;0.30;0.30;;;18.80;99.90;;;;;;4912136;29;20468;-71
2022/08/20 04:55:32;;;;;;;0.50;0.50;;;18.80;99.90;;;;;;4916707;29;20485;-71
2022/08/20 04:58:04;;;;;;;0.43;0.43;;;18.80;99.90;;;;;;4912785;29;20502;-71
2022/08/20 05:00:31;;;;;;;0.30;0.30;;;18.80;99.90;;;;;;4913745;29;20510;-71
2022/08/20 05:02:58;;;;;;;0.50;0.50;;;18.80;99.90;;;;;;4909230;29;20536;-71
2022/08/20 05:05:26;;;;;;;0.60;0.37;;;18.90;99.90;;;;;;4908317;29;20478;-71
2022/08/20 05:07:54;;;;;;;0.30;0.30;;;18.80;99.90;;;;;;4912245;29;20538;-71
2022/08/20 05:10:22;;;;;;;0.30;0.30;;;18.90;99.90;;;;;;4916739;29;20467;-71
2022/08/20 05:12:49;;;;;;;0.27;0.27;;;18.90;99.90;;;;;;4912289;29;20498;-71
2022/08/20 05:15:16;;;;;;;0.30;0.30;;;18.90;99.90;;;;;;4910951;29;20938;-71
2022/08/20 05:17:44;;;;;;;0.30;0.30;;;19.00;99.90;;;;;;4912782;29;20494;-71
2022/08/20 05:20:15;;;;;;;0.23;0.23;;;18.90;99.90;;;;;;4910564;29;20465;-71
2022/08/20 05:22:42;;;;;;;0.57;0.57;;;19.00;99.90;;;;;;4906535;29;22219;-71
2022/08/20 05:25:10;;;;;;;0.20;0.20;;;19.00;99.90;;;;;;4914970;29;20484;-71
2022/08/20 05:27:37;;;;;;;0.30;0.30;;;19.00;99.90;;;;;;4912015;29;20465;-71
2022/08/20 05:30:08;;;;;;;0.50;0.50;;;19.00;99.90;;;;;;4913927;29;20479;-71
2022/08/20 05:32:35;;;;;;;0.30;0.20;;;19.00;99.90;;;;;;4914659;29;20529;-71
2022/08/20 05:35:02;;;;;;;0.47;0.47;;;19.00;99.90;;;;;;4905674;29;20967;-71
2022/08/20 05:37:30;;;;;;;0.37;0.37;;;19.10;99.90;;;;;;4910448;29;20497;-71
2022/08/20 05:39:57;;;;;;;0.40;0.40;;;19.10;99.90;;;;;;4914980;29;20609;-71
2022/08/20 05:42:26;;;;;;;0.30;0.30;;;19.10;99.90;;;;;;4913003;29;20505;-71
2022/08/20 05:44:53;;;;;;;0.20;0.20;;;19.10;99.90;;;;;;4905218;29;20502;-71
2022/08/20 05:47:21;;;;;;;0.27;0.27;;;19.10;99.90;;;;;;4916144;29;20783;-71
2022/08/20 05:49:48;;;;;;;0.53;0.53;;;19.10;99.90;;;;;;4911783;29;20497;-71
2022/08/20 05:52:15;;;;;;;0.30;0.30;;;19.20;99.90;;;;;;4913547;29;20489;-71
2022/08/20 05:54:41;;;;;;;0.60;0.60;;;19.20;99.90;;;;;;4912406;29;20470;-71
2022/08/20 05:57:08;;;;;;;0.30;0.20;;;19.20;99.90;;;;;;4912452;29;20482;-71
2022/08/20 05:59:38;;;;;;;0.30;0.27;;;19.30;99.90;;;;;;4911488;29;20482;-71
2022/08/20 06:04:23;;;;;;;0.23;0.23;;;19.40;99.90;;;;;;4907347;29;20544;-70
2022/08/20 06:04:50;;;;;;;0.20;0.20;;;19.50;99.90;;;;;;4907645;29;22127;-70
2022/08/20 06:07:17;;;;;;;0.43;0.43;;;19.50;99.90;;;;;;4910956;29;20470;-70
2022/08/20 06:09:45;;;;;;;0.53;0.40;;;19.60;99.90;;;;;;4914553;29;20218;-70
2022/08/20 06:12:11;;;;;;;0.50;0.50;;;19.60;99.90;;;;;;4910014;29;20499;-71
2022/08/20 06:14:40;;;;;;;0.23;0.23;;;19.70;99.90;;;;;;4909219;29;20475;-71
2022/08/20 06:17:08;;;;;;;0.30;0.30;;;19.80;99.90;;;;;;4910193;29;20471;-71
2022/08/20 06:19:37;;;;;;;0.30;0.30;;;19.80;99.90;;;;;;4910825;29;20506;-70
2022/08/20 06:22:05;;;;;;;0.40;0.40;;;19.80;99.90;;;;;;4913575;29;20495;-71
2022/08/20 06:24:32;;;;;;;0.20;0.20;;;19.90;99.90;;;;;;4900524;29;20475;-70
2022/08/20 06:27:01;;;;;;;0.30;0.30;;;19.90;99.90;;;;;;4909549;29;20467;-71
2022/08/20 06:29:28;;;;;;;0.30;0.30;;;19.90;99.90;;;;;;4907081;29;20473;-70
2022/08/20 06:31:56;;;;;;;0.37;0.20;;;20.00;99.90;;;;;;4912585;29;21019;-70
2022/08/20 06:34:27;;;;;;;0.23;0.23;;;19.90;99.90;;;;;;4906687;29;20577;-70
2022/08/20 06:36:53;;;;;;;0.30;0.30;;;19.90;99.90;;;;;;4911355;29;20479;-70
2022/08/20 06:39:21;;;;;;;0.20;0.20;;;19.90;99.90;;;;;;4911740;29;20513;-70
2022/08/20 06:41:48;;;;;;;0.20;0.20;;;19.90;99.90;;;;;;4915029;29;20487;-70
2022/08/20 06:44:14;;;;;;;0.37;0.30;;;19.90;99.90;;;;;;4909789;29;20490;-70
2022/08/20 06:46:42;;;;;;;1.47;0.37;;;19.90;99.90;;;;;;4912817;29;20474;-70
2022/08/20 06:49:11;;;;;;;0.23;0.23;;;19.90;99.90;;;;;;4908838;29;20578;-69
2022/08/20 06:51:38;;;;;;;0.20;0.20;;;19.90;99.90;;;;;;4913441;29;20863;-71
2022/08/20 06:54:05;;;;;;;0.57;0.50;;;19.90;99.90;;;;;;4912697;29;20478;-70
2022/08/20 06:56:33;;;;;;;0.40;0.40;;;19.90;99.90;;;;;;4906719;29;20817;-70
2022/08/20 06:59:00;;;;;;;0.20;0.20;;;20.00;99.90;;;;;;4907779;29;20487;-70
2022/08/20 07:01:27;;;;;;;0.30;0.30;;;20.00;99.90;;;;;;4901115;29;20508;-69
2022/08/20 07:03:54;;;;;;;0.20;0.20;;;20.00;99.90;;;;;;4906401;29;20474;-70
2022/08/20 07:06:24;;;;;;;0.40;0.40;;;20.10;99.90;;;;;;4908101;29;21013;-70
2022/08/20 07:08:50;;;;;;;0.20;0.20;;;20.10;99.90;;;;;;4911010;29;20828;-70
2022/08/20 07:11:17;;;;;;;0.20;0.20;;;20.10;99.90;;;;;;4909051;29;20507;-70
2022/08/20 07:13:44;;;;;;;0.20;0.20;;;20.20;99.90;;;;;;4914225;29;20474;-71
2022/08/20 07:16:10;;;;;;;0.20;0.20;;;20.20;99.90;;;;;;4908540;29;20534;-71
2022/08/20 07:18:37;;;;;;;0.20;0.20;;;20.30;99.90;;;;;;4907841;29;20495;-71
2022/08/20 07:21:04;;;;;;;0.27;0.27;;;20.40;99.90;;;;;;4909583;29;20495;-71
2022/08/20 07:23:32;;;;;;;0.30;0.30;;;20.50;99.90;;;;;;4913339;29;20545;-71
2022/08/20 07:25:59;;;;;;;0.30;0.30;;;20.60;99.90;;;;;;4907828;29;20472;-71
2022/08/20 07:28:28;;;;;;;0.20;0.20;;;20.80;99.90;;;;;;4910681;29;20472;-70
2022/08/20 07:33:40;;;;;;;0.23;0.23;;;21.00;99.90;;;;;;4904183;29;20466;-71
2022/08/20 07:36:08;;;;;;;0.20;0.20;;;21.00;99.90;;;;;;4909507;29;20477;-71
2022/08/20 07:38:37;;;;;;;0.20;0.20;;;21.10;99.90;;;;;;4909146;29;20950;-71
2022/08/20 07:41:05;;;;;;;0.43;0.43;;;21.20;99.90;;;;;;4910661;29;20501;-72
2022/08/20 07:43:33;;;;;;;0.30;0.23;;;21.30;99.90;;;;;;4911149;29;20519;-71
2022/08/20 07:46:07;;;;;;;0.30;0.30;;;21.30;99.90;;;;;;4912378;29;20496;-70
2022/08/20 07:48:35;;;;;;;0.20;0.20;;;21.30;99.90;;;;;;4911307;29;20566;-69
2022/08/20 07:51:04;;;;;;;1.13;0.50;;;21.40;99.90;;;;;;4903453;29;20492;-69
2022/08/20 07:53:33;;;;;;;0.30;0.30;;;21.30;99.90;;;;;;4908942;29;20476;-70
2022/08/20 07:56:04;;;;;;;0.30;0.30;;;21.30;99.90;;;;;;4907379;29;20474;-71
2022/08/20 07:58:33;;;;;;;0.57;0.57;;;21.30;99.90;;;;;;4907399;29;20492;-71
2022/08/20 08:01:00;;;;;;;0.20;0.20;;;21.40;99.90;;;;;;4907628;29;20507;-70
2022/08/20 08:03:28;;;;;;;0.23;0.23;;;21.40;99.90;;;;;;4905305;29;20474;-73
2022/08/20 08:05:55;;;;;;;0.50;0.50;;;21.50;99.90;;;;;;4906100;29;20571;-71
2022/08/20 08:08:25;;;;;;;0.40;0.20;;;21.50;99.90;;;;;;4912440;29;20481;-71
2022/08/20 08:10:57;;;;;;;0.97;0.97;;;21.50;99.90;;;;;;4908648;29;20519;-71
2022/08/20 08:13:27;;;;;;;0.40;0.40;;;21.50;99.90;;;;;;4907315;29;20476;-72
2022/08/20 08:15:57;;;;;;;0.30;0.30;;;21.60;99.90;;;;;;4908031;29;20962;-71
2022/08/20 08:18:28;;;;;;;0.30;0.30;;;21.70;99.90;;;;;;4913140;29;20504;-71
2022/08/20 08:20:55;;;;;;;0.40;0.40;;;21.80;99.90;;;;;;4912959;29;20845;-71
2022/08/20 08:23:23;;;;;;;0.30;0.30;;;21.90;99.90;;;;;;4907188;29;20479;-71
2022/08/20 08:25:51;;;;;;;0.50;0.50;;;22.00;99.90;;;;;;4913460;29;20588;-71
2022/08/20 08:28:19;;;;;;;0.27;0.27;;;22.10;99.90;;;;;;4901637;29;20584;-71
2022/08/20 08:30:48;;;;;;;0.33;0.33;;;22.30;99.90;;;;;;4912762;29;20496;-71
2022/08/20 08:33:31;;;;;;;0.50;0.50;;;22.40;99.90;;;;;;4913999;29;20477;-71
2022/08/20 08:36:01;;;;;;;0.20;0.20;;;22.40;99.90;;;;;;4907920;29;20474;-70
2022/08/20 08:38:28;;;;;;;0.30;0.30;;;22.60;99.90;;;;;;4913804;29;20577;-71
2022/08/20 08:40:58;;;;;;;0.20;0.20;;;22.80;99.90;;;;;;4906791;29;20493;-71
2022/08/20 08:43:27;;;;;;;0.50;0.50;;;22.80;99.90;;;;;;4912488;29;20473;-71
2022/08/20 08:46:04;;;;;;;0.30;0.30;;;22.80;99.90;;;;;;4904900;29;20473;-71
2022/08/20 08:48:38;;;;;;;2.20;0.40;;;23.10;99.90;;;;;;4906447;29;20572;-71
2022/08/20 08:51:11;;;;;;;0.50;0.50;;;23.20;99.90;;;;;;4905547;29;20485;-71
2022/08/20 08:53:45;;;;;;;0.40;0.40;;;23.40;99.90;;;;;;4910664;29;20474;-71
2022/08/20 08:56:14;;;;;;;0.67;0.30;;;23.60;99.90;;;;;;4911854;29;20467;-71
2022/08/20 08:58:42;;;;;;;0.70;0.40;;;23.60;99.90;;;;;;4905564;29;20561;-71
2022/08/20 09:01:13;;;;;;;0.40;0.40;;;23.70;99.90;;;;;;4901783;29;20533;-70
2022/08/20 09:03:43;;;;;;;1.33;0.40;;;23.70;99.90;;;;;;4913090;29;20478;-71
2022/08/20 09:06:14;;;;;;;0.27;0.27;;;23.60;99.90;;;;;;4912052;29;20960;-70
2022/08/20 09:08:46;;;;;;;0.50;0.50;;;23.60;99.90;;;;;;4916990;29;20517;-71
2022/08/20 09:11:14;;;;;;;0.57;0.23;;;23.50;99.90;;;;;;4909856;29;20510;-70
2022/08/20 09:13:41;;;;;;;0.30;0.30;;;23.40;99.90;;;;;;4914071;29;20477;-70
2022/08/20 09:16:08;;;;;;;0.40;0.40;;;23.30;99.90;;;;;;4915086;29;20496;-70
2022/08/20 09:18:36;;;;;;;0.30;0.30;;;23.20;99.90;;;;;;4916810;29;20509;-70
2022/08/20 09:21:03;;;;;;;0.57;0.57;;;23.30;99.90;;;;;;4911530;29;20509;-70
2022/08/20 09:23:30;;;;;;;0.57;0.57;;;23.50;99.90;;;;;;4916647;29;20497;-70
2022/08/20 09:25:57;;;;;;;0.40;0.40;;;23.70;99.90;;;;;;4908547;29;20482;-70
2022/08/20 09:28:24;;;;;;;0.47;0.40;;;24.10;99.90;;;;;;4911313;29;21749;-70
2022/08/20 09:30:51;;;;;;;1.23;0.60;;;24.30;99.90;;;;;;4906995;29;20518;-70
2022/08/20 09:33:18;;;;;;;0.50;0.50;;;24.50;99.90;;;;;;4909703;29;20471;-70
2022/08/20 09:35:46;;;;;;;0.47;0.47;;;24.70;99.90;;;;;;4914498;29;20479;-70
2022/08/20 09:38:13;;;;;;;1.10;1.10;;;24.80;99.90;;;;;;4911643;29;20475;-70
2022/08/20 09:40:40;;;;;;;0.67;0.67;;;24.80;99.90;;;;;;4911449;29;20497;-71
2022/08/20 09:43:07;;;;;;;0.60;0.60;;;24.90;99.90;;;;;;4904169;29;20478;-70
2022/08/20 09:45:34;;;;;;;0.50;0.50;;;25.00;99.90;;;;;;4912630;29;20475;-71
2022/08/20 09:48:00;;;;;;;0.50;0.50;;;25.00;99.90;;;;;;4910759;29;20475;-70
2022/08/20 09:50:30;;;;;;;0.80;0.80;;;24.90;99.90;;;;;;4909330;29;20472;-70
2022/08/20 09:53:00;;;;;;;0.30;0.30;;;24.70;99.90;;;;;;4909444;29;20473;-70
2022/08/20 09:55:33;;;;;;;0.63;0.63;;;24.60;99.90;;;;;;4916104;29;20463;-70
2022/08/20 09:58:02;;;;;;;0.20;0.20;;;24.60;99.90;;;;;;4908042;29;20474;-70
2022/08/20 10:00:28;;;;;;;0.40;0.40;;;24.50;99.90;;;;;;4901329;29;20491;-71
2022/08/20 10:02:55;;;;;;;0.40;0.40;;;24.40;99.90;;;;;;4915023;29;20467;-70
2022/08/20 10:05:22;;;;;;;0.33;0.33;;;24.30;99.90;;;;;;4913992;29;20567;-71
2022/08/20 10:07:49;;;;;;;0.40;0.40;;;24.30;99.90;;;;;;4908226;29;20471;-71
2022/08/20 10:10:17;;;;;;;0.17;0.17;;;24.30;99.90;;;;;;4909817;29;20961;-71
2022/08/20 10:12:45;;;;;;;0.70;0.40;;;24.30;99.90;;;;;;4912219;29;20477;-70
2022/08/20 10:15:12;;;;;;;0.40;0.40;;;24.40;99.90;;;;;;4911592;29;20915;-70
2022/08/20 10:17:39;;;;;;;0.73;0.60;;;24.50;99.90;;;;;;4906566;29;20506;-71
2022/08/20 10:20:08;;;;;;;0.60;0.60;;;24.50;99.90;;;;;;4901617;29;20496;-71
2022/08/20 10:22:35;;;;;;;0.30;0.30;;;24.50;99.90;;;;;;4905854;29;20505;-70
2022/08/20 10:25:02;;;;;;;0.30;0.30;;;24.50;99.90;;;;;;4902015;29;21811;-71
2022/08/20 10:27:30;;;;;;;0.50;0.40;;;24.50;99.90;;;;;;4911133;29;20472;-70
2022/08/20 10:29:56;;;;;;;0.30;0.30;;;24.50;99.90;;;;;;4905719;29;20471;-70
2022/08/20 10:32:23;;;;;;;0.37;0.37;;;24.50;99.90;;;;;;4908632;29;21019;-71
2022/08/20 10:34:50;;;;;;;0.30;0.30;;;24.60;99.90;;;;;;4906243;29;20508;-71
2022/08/20 10:37:19;;;;;;;0.70;0.70;;;24.60;99.90;;;;;;4914129;29;21044;-71
2022/08/20 10:39:46;;;;;;;0.30;0.30;;;24.60;99.90;;;;;;4913059;29;20490;-70
2022/08/20 10:42:13;;;;;;;0.20;0.20;;;24.70;99.90;;;;;;4910934;29;20607;-71
2022/08/20 10:44:41;;;;;;;0.30;0.30;;;24.60;99.90;;;;;;4910577;29;20487;-70
2022/08/20 10:47:17;;;;;;;0.20;0.20;;;24.50;99.90;;;;;;4905052;29;20495;-70
2022/08/20 10:49:44;;;;;;;0.33;0.33;;;24.50;99.90;;;;;;4913567;29;20471;-71
2022/08/20 10:52:11;;;;;;;0.50;0.50;;;24.50;99.90;;;;;;4910332;29;20853;-71
2022/08/20 10:54:40;;;;;;;0.30;0.30;;;24.60;99.90;;;;;;4915338;29;20574;-71
2022/08/20 10:57:07;;;;;;;0.20;0.20;;;24.50;99.90;;;;;;4913685;29;20818;-71
2022/08/20 10:59:38;;;;;;;0.30;0.30;;;24.50;99.90;;;;;;4904938;29;20492;-71
2022/08/20 11:02:06;;;;;;;0.20;0.20;;;24.50;99.90;;;;;;4910409;29;20849;-71
2022/08/20 11:04:33;;;;;;;0.20;0.20;;;24.50;99.90;;;;;;4911462;29;20493;-70
2022/08/20 11:07:11;;;;;;;0.40;0.40;;;24.60;99.90;;;;;;4908271;29;20476;-71
2022/08/20 11:09:37;;;;;;;0.20;0.20;;;24.60;99.90;;;;;;4908673;29;20471;-70
2022/08/20 11:12:04;;;;;;;0.20;0.20;;;24.70;99.90;;;;;;4908132;29;20487;-70
2022/08/20 11:14:32;;;;;;;0.23;0.23;;;24.90;99.90;;;;;;4909229;29;20482;-70
2022/08/20 11:16:59;;;;;;;0.20;0.20;;;25.00;99.90;;;;;;4905823;29;20919;-70
2022/08/20 11:19:27;;;;;;;0.40;0.40;;;25.00;99.90;;;;;;4903789;29;20862;-70
2022/08/20 11:21:54;;;;;;;0.23;0.23;;;25.20;99.90;;;;;;4903072;29;20495;-71
2022/08/20 11:24:21;;;;;;;0.30;0.30;;;25.30;99.90;;;;;;4903456;29;20482;-70
2022/08/20 11:26:49;;;;;;;0.23;0.23;;;25.40;99.90;;;;;;4907390;29;20475;-71
2022/08/20 11:29:17;;;;;;;0.50;0.50;;;25.40;99.90;;;;;;4906383;29;20463;-71
2022/08/20 11:31:45;;;;;;;0.30;0.30;;;25.60;99.90;;;;;;4915090;29;20499;-71
2022/08/20 11:34:12;;;;;;;0.30;0.30;;;25.60;99.90;;;;;;4901082;29;20567;-70
2022/08/20 11:36:41;;;;;;;2.17;0.60;;;25.60;99.90;;;;;;4901608;29;20470;-70
2022/08/20 11:39:07;;;;;;;0.80;0.77;;;25.70;99.90;;;;;;4901526;29;20495;-70
2022/08/20 11:41:34;;;;;;;0.30;0.30;;;25.80;99.90;;;;;;4904921;29;20491;-70
2022/08/20 11:44:01;;;;;;;0.37;0.37;;;25.80;99.90;;;;;;4909165;29;20940;-70
2022/08/20 11:46:28;;;;;;;0.20;0.20;;;25.90;99.90;;;;;;4899796;29;20474;-70
2022/08/20 11:48:54;;;;;;;0.40;0.40;;;25.80;99.90;;;;;;4903131;29;20468;-70
2022/08/20 11:51:21;;;;;;;0.40;0.40;;;25.90;99.90;;;;;;4906893;29;20482;-71
2022/08/20 11:53:49;;;;;;;0.33;0.33;;;26.10;99.90;;;;;;4908910;29;20569;-71
2022/08/20 11:56:17;;;;;;;0.40;0.40;;;26.20;99.90;;;;;;4905383;29;20490;-71
2022/08/20 11:58:44;;;;;;;0.30;0.30;;;26.30;99.90;;;;;;4914742;29;20527;-71
2022/08/20 12:01:11;;;;;;;0.20;0.20;;;26.30;99.90;;;;;;4906306;29;20528;-71
2022/08/20 12:03:38;;;;;;;0.43;0.43;;;26.30;99.90;;;;;;4899947;29;20488;-72
2022/08/20 12:06:05;;;;;;;0.30;0.30;;;26.20;99.90;;;;;;4902970;29;20480;-69
2022/08/20 12:08:32;;;;;;;0.20;0.20;;;26.10;99.90;;;;;;4908173;29;20588;-69
2022/08/20 12:11:02;;;;;;;1.03;0.40;;;26.10;99.90;;;;;;4914092;29;20482;-70
2022/08/20 12:13:31;;;;;;;0.40;0.40;;;26.00;99.90;;;;;;4903374;29;20488;-70
2022/08/20 12:15:59;;;;;;;0.53;0.53;;;26.00;99.90;;;;;;4908035;29;20822;-69
2022/08/20 12:18:25;;;;;;;0.33;0.33;;;25.90;99.90;;;;;;4899780;29;21094;-69
2022/08/20 12:20:53;;;;;;;0.30;0.30;;;25.70;99.90;;;;;;4911876;29;20502;-69
2022/08/20 12:23:19;;;;;;;0.40;0.40;;;25.60;99.90;;;;;;4911392;29;20483;-69
2022/08/20 12:25:46;;;;;;;0.30;0.30;;;25.60;99.90;;;;;;4909499;29;20845;-69
2022/08/20 12:28:15;;;;;;;0.30;0.30;;;25.70;99.90;;;;;;4905803;29;20471;-71
2022/08/20 12:30:42;;;;;;;0.60;0.40;;;25.70;99.90;;;;;;4911158;29;21007;-69
2022/08/20 12:33:09;;;;;;;0.20;0.20;;;25.70;99.90;;;;;;4912391;29;20479;-69
2022/08/20 12:35:35;;;;;;;0.20;0.20;;;25.70;99.90;;;;;;4907251;29;20475;-70
2022/08/20 12:38:03;;;;;;;0.40;0.30;;;25.70;99.90;;;;;;4900072;29;21053;-69
2022/08/20 12:40:30;;;;;;;0.20;0.20;;;25.60;99.90;;;;;;4908889;29;20491;-69
2022/08/20 12:42:57;;;;;;;0.20;0.20;;;25.60;99.90;;;;;;4908834;29;20481;-71
2022/08/20 12:45:25;;;;;;;0.30;0.30;;;25.50;99.90;;;;;;4910730;29;20470;-70
2022/08/20 12:47:52;;;;;;;0.40;0.37;;;25.50;99.90;;;;;;4913500;29;20474;-69
2022/08/20 12:50:21;;;;;;;0.20;0.20;;;25.50;99.90;;;;;;4914748;29;20496;-69
2022/08/20 12:52:48;;;;;;;0.27;0.27;;;25.40;99.90;;;;;;4916444;29;20588;-69
2022/08/20 12:55:18;;;;;;;0.20;0.20;;;25.30;99.90;;;;;;4915959;29;21269;-69
2022/08/20 12:57:46;;;;;;;0.50;0.50;;;25.30;99.90;;;;;;4916686;29;20481;-69
2022/08/20 13:00:18;;;;;;;0.23;0.23;;;25.30;99.90;;;;;;4909651;29;20505;-69
2022/08/20 13:02:46;;;;;;;0.60;0.60;;;25.20;99.90;;;;;;4903824;29;20553;-71
2022/08/20 13:05:14;;;;;;;0.40;0.40;;;25.20;99.90;;;;;;4917380;29;21008;-69
2022/08/20 13:07:42;;;;;;;0.30;0.30;;;25.20;99.90;;;;;;4901795;29;20475;-70
2022/08/20 13:10:12;;;;;;;0.33;0.33;;;25.30;99.90;;;;;;4912522;29;20475;-69
2022/08/20 13:12:39;;;;;;;0.30;0.27;;;25.30;99.90;;;;;;4909729;29;20849;-70
2022/08/20 13:15:06;;;;;;;0.50;0.50;;;25.30;99.90;;;;;;4916117;29;20459;-70
2022/08/20 13:17:33;;;;;;;0.30;0.30;;;25.40;99.90;;;;;;4911464;29;20470;-70
2022/08/20 13:20:01;;;;;;;0.40;0.40;;;25.40;99.90;;;;;;4910547;29;20490;-69
2022/08/20 13:22:28;;;;;;;0.23;0.23;;;25.40;99.90;;;;;;4910214;29;20490;-69
2022/08/20 13:24:54;;;;;;;0.20;0.20;;;25.40;99.90;;;;;;4910835;29;20474;-69
2022/08/20 13:27:21;;;;;;;0.20;0.20;;;25.30;99.90;;;;;;4916060;29;20664;-69
2022/08/20 13:29:49;;;;;;;0.20;0.20;;;25.30;99.90;;;;;;4916616;29;20536;-69
2022/08/20 13:32:17;;;;;;;0.27;0.27;;;25.30;99.90;;;;;;4914119;29;20490;-69
2022/08/20 13:34:44;;;;;;;0.40;0.40;;;25.30;99.90;;;;;;4909340;29;21007;-69
2022/08/20 13:37:16;;;;;;;0.20;0.20;;;25.30;99.90;;;;;;4908088;29;20626;-69
2022/08/20 13:39:44;;;;;;;0.40;0.40;;;25.40;99.90;;;;;;4906420;29;20467;-69
2022/08/20 13:42:12;;;;;;;0.20;0.20;;;25.40;99.90;;;;;;4911684;29;20499;-71
2022/08/20 13:44:39;;;;;;;0.37;0.37;;;25.50;99.90;;;;;;4905159;29;20471;-69
2022/08/20 13:47:17;;;;;;;0.57;0.40;;;25.50;99.90;;;;;;4912639;29;20494;-70
2022/08/20 13:49:43;;;;;;;0.20;0.20;;;25.40;99.90;;;;;;4909158;29;20479;-69
2022/08/20 13:52:10;;;;;;;4.80;0.33;;;25.40;99.90;;;;;;4908633;29;20498;-69
2022/08/20 13:54:39;;;;;;;0.27;0.27;;;25.40;99.90;;;;;;4912622;29;20482;-71
2022/08/20 13:57:07;;;;;;;1.60;0.30;;;25.40;99.90;;;;;;4912400;29;21133;-71
2022/08/20 13:59:38;;;;;;;0.40;0.40;;;25.50;99.90;;;;;;4913622;29;20471;-70
2022/08/20 14:02:06;;;;;;;0.30;0.20;;;25.50;99.90;;;;;;4910767;29;20519;-71
2022/08/20 14:04:32;;;;;;;0.20;0.20;;;25.50;99.90;;;;;;4910487;29;20470;-71
2022/08/20 14:07:09;;;;;;;0.20;0.20;;;25.40;99.90;;;;;;4912901;29;20482;-70
2022/08/20 14:09:39;;;;;;;0.20;0.20;;;25.40;99.90;;;;;;4908852;29;20577;-70
2022/08/20 14:12:06;;;;;;;0.20;0.20;;;25.40;99.90;;;;;;4903208;29;20491;-69
2022/08/20 14:14:33;;;;;;;0.53;0.23;;;25.30;99.90;;;;;;4912306;29;20478;-70
2022/08/20 14:17:00;;;;;;;0.40;0.40;;;25.40;99.90;;;;;;4915285;29;20486;-70
2022/08/20 14:19:26;;;;;;;0.20;0.20;;;25.30;99.90;;;;;;4909488;29;20482;-70
2022/08/20 14:21:53;;;;;;;0.37;0.37;;;25.30;99.90;;;;;;4907948;29;20502;-70
2022/08/20 14:24:20;;;;;;;0.20;0.20;;;25.20;99.90;;;;;;4912709;29;20823;-70
2022/08/20 14:26:48;;;;;;;0.20;0.20;;;25.10;99.90;;;;;;4911242;29;20479;-70
2022/08/20 14:29:18;;;;;;;1.20;0.40;;;25.10;99.90;;;;;;4910398;29;20479;-69
2022/08/20 14:31:45;;;;;;;0.30;0.30;;;25.30;99.90;;;;;;4912145;29;20546;-69
2022/08/20 14:34:11;;;;;;;0.20;0.20;;;25.30;99.90;;;;;;4903147;29;20478;-69
2022/08/20 14:36:38;;;;;;;0.20;0.20;;;25.40;99.90;;;;;;4915461;29;20470;-70
2022/08/20 14:39:05;;;;;;;0.30;0.30;;;25.30;99.90;;;;;;4906852;29;20477;-70
2022/08/20 14:41:31;;;;;;;0.20;0.20;;;25.30;99.90;;;;;;4904810;29;20502;-69
2022/08/20 14:43:59;;;;;;;1.13;0.70;;;25.30;99.90;;;;;;4907563;29;20501;-70
2022/08/20 14:46:26;;;;;;;0.30;0.30;;;25.40;99.90;;;;;;4909953;29;20578;-71
2022/08/20 14:48:53;;;;;;;0.30;0.30;;;25.40;99.90;;;;;;4909983;29;20907;-70
2022/08/20 14:51:19;;;;;;;0.20;0.20;;;25.50;99.90;;;;;;4905124;29;20511;-69
2022/08/20 14:53:46;;;;;;;0.30;0.30;;;25.60;99.90;;;;;;4913234;29;20499;-70
2022/08/20 14:56:14;;;;;;;0.30;0.30;;;25.60;99.90;;;;;;4911862;29;20475;-70
2022/08/20 14:58:41;;;;;;;0.20;0.20;;;25.60;99.90;;;;;;4915065;29;20501;-70
2022/08/20 15:01:09;;;;;;;0.20;0.20;;;25.60;99.90;;;;;;4908810;29;20502;-71
2022/08/20 15:03:35;;;;;;;1.10;0.27;;;25.50;99.90;;;;;;4912707;29;20482;-71
2022/08/20 15:06:02;;;;;;;0.40;0.40;;;25.50;99.90;;;;;;4910452;29;20471;-71
2022/08/20 15:08:30;;;;;;;0.20;0.20;;;25.40;99.90;;;;;;4906373;29;20475;-71
2022/08/20 15:10:57;;;;;;;0.20;0.20;;;25.30;99.90;;;;;;4904187;29;20999;-72
2022/08/20 15:13:23;;;;;;;0.27;0.27;;;25.30;99.90;;;;;;4907031;29;20482;-71
2022/08/20 15:15:50;;;;;;;0.20;0.20;;;25.20;99.90;;;;;;4906958;29;20472;-71
2022/08/20 15:18:20;;;;;;;0.20;0.20;;;25.20;99.90;;;;;;4911890;29;20467;-71
2022/08/20 15:20:47;;;;;;;0.20;0.20;;;25.20;99.90;;;;;;4913969;29;20501;-71
2022/08/20 15:23:14;;;;;;;0.20;0.20;;;25.20;99.90;;;;;;4907941;29;20845;-71
2022/08/20 15:25:41;;;;;;;0.20;0.20;;;25.10;99.90;;;;;;4904302;29;20478;-71
2022/08/20 15:28:09;;;;;;;0.30;0.30;;;25.00;99.90;;;;;;4907856;29;20475;-71
2022/08/20 15:30:37;;;;;;;0.10;0.10;;;25.00;99.90;;;;;;4913423;29;20574;-72
2022/08/20 15:33:04;;;;;;;1.27;1.27;;;24.90;99.90;;;;;;4907948;29;20484;-70
2022/08/20 15:35:32;;;;;;;0.23;0.23;;;24.90;99.90;;;;;;4906693;29;20485;-72
2022/08/20 15:37:59;;;;;;;0.10;0.10;;;24.80;99.90;;;;;;4910491;29;20477;-71
2022/08/20 15:40:29;;;;;;;0.20;0.20;;;24.70;99.90;;;;;;4912873;29;20477;-71
2022/08/20 15:42:56;;;;;;;0.30;0.30;;;24.70;99.90;;;;;;4910311;29;20512;-71
2022/08/20 15:45:22;;;;;;;0.20;0.20;;;24.70;99.90;;;;;;4910608;29;20477;-70
2022/08/20 15:47:53;;;;;;;0.70;0.20;;;24.80;99.90;;;;;;4911835;29;20946;-71
2022/08/20 15:50:34;;;;;;;0.10;0.10;;;24.80;99.90;;;;;;4913808;29;20560;-71
2022/08/20 15:53:08;;;;;;;0.20;0.20;;;24.80;99.90;;;;;;4907803;29;20501;-71
2022/08/20 15:55:39;;;;;;;0.20;0.20;;;24.80;99.90;;;;;;4909905;29;20482;-71
2022/08/20 15:58:14;;;;;;;0.20;0.20;;;24.90;99.90;;;;;;4902869;29;20491;-72
2022/08/20 16:00:54;;;;;;;0.20;0.20;;;24.70;99.90;;;;;;4914375;29;20504;-71
2022/08/20 16:03:35;;;;;;;0.20;0.20;;;24.60;99.90;;;;;;4907568;29;20492;-71
2022/08/20 16:06:09;;;;;;;0.20;0.20;;;24.50;99.90;;;;;;4906221;29;20483;-70
2022/08/20 16:08:51;;;;;;;0.10;0.10;;;24.30;99.90;;;;;;4909271;29;20568;-71
2022/08/20 16:11:25;;;;;;;0.20;0.20;;;24.30;99.90;;;;;;4910190;29;20499;-71
2022/08/20 16:13:56;;;;;;;0.20;0.20;;;24.30;99.90;;;;;;4910624;29;20514;-71
2022/08/20 16:16:30;;;;;;;0.17;0.17;;;24.30;99.90;;;;;;4911771;29;20475;-71
2022/08/20 16:18:58;;;;;;;0.37;0.20;;;24.20;99.90;;;;;;4916421;29;20472;-71
2022/08/20 16:21:29;;;;;;;0.20;0.20;;;24.20;99.90;;;;;;4913456;29;20497;-70
2022/08/20 16:23:58;;;;;;;0.10;0.10;;;24.20;99.90;;;;;;4918529;29;21001;-70
2022/08/20 16:26:39;;;;;;;0.20;0.20;;;24.20;99.90;;;;;;4911700;29;20586;-70
2022/08/20 16:29:11;;;;;;;0.20;0.20;;;24.10;99.90;;;;;;4912333;29;20561;-71
2022/08/20 16:31:46;;;;;;;0.33;0.20;;;24.20;99.90;;;;;;4909486;29;20504;-70
2022/08/20 16:34:25;;;;;;;0.10;0.10;;;24.10;99.90;;;;;;4909308;29;20560;-71
2022/08/20 16:36:59;;;;;;;0.10;0.10;;;24.10;99.90;;;;;;4907649;29;20468;-70
2022/08/20 16:39:32;;;;;;;0.20;0.20;;;24.20;99.90;;;;;;4913233;29;20475;-70
2022/08/20 16:41:59;;;;;;;0.10;0.10;;;24.10;99.90;;;;;;4908789;29;20497;-70
2022/08/20 16:44:32;;;;;;;0.20;0.20;;;24.10;99.90;;;;;;4906772;29;20976;-71
2022/08/20 16:47:05;;;;;;;0.20;0.20;;;23.90;99.90;;;;;;4907677;29;20476;-71
2022/08/20 16:49:36;;;;;;;0.10;0.10;;;23.90;99.90;;;;;;4916221;29;20527;-71
2022/08/20 16:52:04;;;;;;;0.17;0.17;;;23.80;99.90;;;;;;4910827;29;20514;-71
2022/08/20 16:54:32;;;;;;;0.37;0.20;;;23.70;99.90;;;;;;4916136;29;20933;-71
2022/08/20 16:57:02;;;;;;;0.20;0.20;;;23.70;99.90;;;;;;4913684;29;20535;-71
2022/08/20 16:59:28;;;;;;;0.43;0.40;;;23.60;99.90;;;;;;4911473;29;20473;-71